sensor_id;sensor_type;location;lat;lon;timestamp;temperature;humidity
14735;DHT22;7458;49.002;8.472;2022-07-29T00:00:09;23.60;71.00
14735;DHT22;7458;49.002;8.472;2022-07-29T00:02:36;23.70;70.90
14735;DHT22;7458;49.002;8.472;2022-07-29T00:05:03;23.80;70.70
14735;DHT22;7458;49.002;8.472;2022-07-29T00:07:31;23.80;70.50
14735;DHT22;7458;49.002;8.472;2022-07-29T00:09:56;23.80;70.40
14735;DHT22;7458;49.002;8.472;2022-07-29T00:12:23;23.70;71.00
14735;DHT22;7458;49.002;8.472;2022-07-29T00:14:50;23.70;70.90
14735;DHT22;7458;49.002;8.472;2022-07-29T00:17:16;23.70;70.90
14735;DHT22;7458;49.002;8.472;2022-07-29T00:19:42;23.70;70.90
14735;DHT22;7458;49.002;8.472;2022-07-29T00:22:07;23.70;71.00
14735;DHT22;7458;49.002;8.472;2022-07-29T00:24:33;23.70;71.20
14735;DHT22;7458;49.002;8.472;2022-07-29T00:26:59;23.70;71.40
14735;DHT22;7458;49.002;8.472;2022-07-29T00:29:25;23.60;71.70
14735;DHT22;7458;49.002;8.472;2022-07-29T00:31:51;23.50;71.90
14735;DHT22;7458;49.002;8.472;2022-07-29T00:34:17;23.50;72.10
14735;DHT22;7458;49.002;8.472;2022-07-29T00:37:01;23.50;72.30
14735;DHT22;7458;49.002;8.472;2022-07-29T00:39:27;23.50;72.40
14735;DHT22;7458;49.002;8.472;2022-07-29T00:41:52;23.50;72.60
14735;DHT22;7458;49.002;8.472;2022-07-29T00:44:19;23.50;72.70
14735;DHT22;7458;49.002;8.472;2022-07-29T00:46:44;23.40;73.00
14735;DHT22;7458;49.002;8.472;2022-07-29T00:49:10;23.40;73.10
14735;DHT22;7458;49.002;8.472;2022-07-29T00:51:37;23.50;73.20
14735;DHT22;7458;49.002;8.472;2022-07-29T00:54:03;23.40;73.30
14735;DHT22;7458;49.002;8.472;2022-07-29T00:56:31;23.40;73.70
14735;DHT22;7458;49.002;8.472;2022-07-29T00:58:58;23.20;74.30
14735;DHT22;7458;49.002;8.472;2022-07-29T01:01:24;23.20;74.60
14735;DHT22;7458;49.002;8.472;2022-07-29T01:03:51;23.30;74.60
14735;DHT22;7458;49.002;8.472;2022-07-29T01:06:17;23.20;75.00
14735;DHT22;7458;49.002;8.472;2022-07-29T01:08:47;23.20;75.30
14735;DHT22;7458;49.002;8.472;2022-07-29T01:11:15;23.20;75.40
14735;DHT22;7458;49.002;8.472;2022-07-29T01:13:44;23.20;75.30
14735;DHT22;7458;49.002;8.472;2022-07-29T01:16:16;23.20;75.60
14735;DHT22;7458;49.002;8.472;2022-07-29T01:18:53;23.20;75.50
14735;DHT22;7458;49.002;8.472;2022-07-29T01:27:32;23.00;77.10
14735;DHT22;7458;49.002;8.472;2022-07-29T01:30:09;23.00;77.00
14735;DHT22;7458;49.002;8.472;2022-07-29T01:32:37;23.00;76.80
14735;DHT22;7458;49.002;8.472;2022-07-29T01:35:33;23.00;76.80
14735;DHT22;7458;49.002;8.472;2022-07-29T01:38:13;23.00;77.20
14735;DHT22;7458;49.002;8.472;2022-07-29T01:40:51;23.00;77.20
14735;DHT22;7458;49.002;8.472;2022-07-29T01:43:23;23.00;77.70
14735;DHT22;7458;49.002;8.472;2022-07-29T01:46:39;23.00;77.70
14735;DHT22;7458;49.002;8.472;2022-07-29T01:49:16;22.90;78.30
14735;DHT22;7458;49.002;8.472;2022-07-29T01:51:50;22.90;78.20
14735;DHT22;7458;49.002;8.472;2022-07-29T01:54:45;23.00;78.00
14735;DHT22;7458;49.002;8.472;2022-07-29T01:57:16;22.90;78.40
14735;DHT22;7458;49.002;8.472;2022-07-29T01:59:46;22.90;78.90
14735;DHT22;7458;49.002;8.472;2022-07-29T02:02:18;22.80;79.10
14735;DHT22;7458;49.002;8.472;2022-07-29T02:04:47;22.70;79.50
14735;DHT22;7458;49.002;8.472;2022-07-29T02:07:18;22.60;79.90
14735;DHT22;7458;49.002;8.472;2022-07-29T02:09:47;22.60;80.10
14735;DHT22;7458;49.002;8.472;2022-07-29T02:12:17;22.50;80.40
14735;DHT22;7458;49.002;8.472;2022-07-29T02:14:50;22.50;81.00
14735;DHT22;7458;49.002;8.472;2022-07-29T02:17:23;22.50;80.90
14735;DHT22;7458;49.002;8.472;2022-07-29T02:19:56;22.50;81.00
14735;DHT22;7458;49.002;8.472;2022-07-29T02:22:26;22.60;81.20
14735;DHT22;7458;49.002;8.472;2022-07-29T02:24:55;22.60;81.20
14735;DHT22;7458;49.002;8.472;2022-07-29T02:27:24;22.50;81.60
14735;DHT22;7458;49.002;8.472;2022-07-29T02:29:52;22.40;82.30
14735;DHT22;7458;49.002;8.472;2022-07-29T02:32:21;22.40;82.30
14735;DHT22;7458;49.002;8.472;2022-07-29T02:34:50;22.50;82.40
14735;DHT22;7458;49.002;8.472;2022-07-29T02:37:17;22.50;83.30
14735;DHT22;7458;49.002;8.472;2022-07-29T02:39:45;22.40;82.90
14735;DHT22;7458;49.002;8.472;2022-07-29T02:42:16;22.30;82.80
14735;DHT22;7458;49.002;8.472;2022-07-29T02:44:43;22.20;83.50
14735;DHT22;7458;49.002;8.472;2022-07-29T02:47:21;22.20;84.00
14735;DHT22;7458;49.002;8.472;2022-07-29T02:52:43;22.20;84.50
14735;DHT22;7458;49.002;8.472;2022-07-29T02:55:22;22.20;84.80
14735;DHT22;7458;49.002;8.472;2022-07-29T02:58:01;22.20;84.70
14735;DHT22;7458;49.002;8.472;2022-07-29T03:00:46;22.20;84.60
14735;DHT22;7458;49.002;8.472;2022-07-29T03:03:16;22.20;84.80
14735;DHT22;7458;49.002;8.472;2022-07-29T03:05:46;22.20;85.10
14735;DHT22;7458;49.002;8.472;2022-07-29T03:08:14;22.20;85.30
14735;DHT22;7458;49.002;8.472;2022-07-29T03:10:43;22.20;85.40
14735;DHT22;7458;49.002;8.472;2022-07-29T03:13:11;22.20;85.50
14735;DHT22;7458;49.002;8.472;2022-07-29T03:15:38;22.10;85.90
14735;DHT22;7458;49.002;8.472;2022-07-29T03:18:08;22.00;86.10
14735;DHT22;7458;49.002;8.472;2022-07-29T03:20:34;21.90;87.50
14735;DHT22;7458;49.002;8.472;2022-07-29T03:23:00;21.80;88.20
14735;DHT22;7458;49.002;8.472;2022-07-29T03:25:26;21.80;88.50
14735;DHT22;7458;49.002;8.472;2022-07-29T03:27:52;21.70;88.80
14735;DHT22;7458;49.002;8.472;2022-07-29T03:30:18;21.70;89.30
14735;DHT22;7458;49.002;8.472;2022-07-29T03:32:44;21.60;89.70
14735;DHT22;7458;49.002;8.472;2022-07-29T03:35:10;21.60;90.00
14735;DHT22;7458;49.002;8.472;2022-07-29T03:37:36;21.60;90.20
14735;DHT22;7458;49.002;8.472;2022-07-29T03:40:04;21.50;90.40
14735;DHT22;7458;49.002;8.472;2022-07-29T03:42:34;21.50;90.50
14735;DHT22;7458;49.002;8.472;2022-07-29T03:45:06;21.50;90.60
14735;DHT22;7458;49.002;8.472;2022-07-29T03:47:37;21.50;90.60
14735;DHT22;7458;49.002;8.472;2022-07-29T03:50:10;21.50;90.80
14735;DHT22;7458;49.002;8.472;2022-07-29T03:52:38;21.50;90.70
14735;DHT22;7458;49.002;8.472;2022-07-29T03:55:05;21.40;90.90
14735;DHT22;7458;49.002;8.472;2022-07-29T03:57:33;21.40;90.90
14735;DHT22;7458;49.002;8.472;2022-07-29T04:00:03;21.40;91.10
14735;DHT22;7458;49.002;8.472;2022-07-29T04:02:31;21.40;91.20
14735;DHT22;7458;49.002;8.472;2022-07-29T04:04:57;21.40;91.30
14735;DHT22;7458;49.002;8.472;2022-07-29T04:07:23;21.50;91.30
14735;DHT22;7458;49.002;8.472;2022-07-29T04:09:49;21.50;91.60
14735;DHT22;7458;49.002;8.472;2022-07-29T04:12:15;21.50;91.30
14735;DHT22;7458;49.002;8.472;2022-07-29T04:14:41;21.50;91.40
14735;DHT22;7458;49.002;8.472;2022-07-29T04:17:06;21.60;91.50
14735;DHT22;7458;49.002;8.472;2022-07-29T04:19:33;21.50;91.60
14735;DHT22;7458;49.002;8.472;2022-07-29T04:22:00;21.50;91.70
14735;DHT22;7458;49.002;8.472;2022-07-29T04:24:27;21.40;91.80
14735;DHT22;7458;49.002;8.472;2022-07-29T04:26:52;21.40;91.90
14735;DHT22;7458;49.002;8.472;2022-07-29T04:29:19;21.40;92.00
14735;DHT22;7458;49.002;8.472;2022-07-29T04:31:45;21.40;92.10
14735;DHT22;7458;49.002;8.472;2022-07-29T04:34:12;21.40;92.30
14735;DHT22;7458;49.002;8.472;2022-07-29T04:36:37;21.50;92.30
14735;DHT22;7458;49.002;8.472;2022-07-29T04:39:04;21.50;92.40
14735;DHT22;7458;49.002;8.472;2022-07-29T04:41:30;21.60;92.30
14735;DHT22;7458;49.002;8.472;2022-07-29T04:43:56;21.60;92.20
14735;DHT22;7458;49.002;8.472;2022-07-29T04:46:22;21.60;92.10
14735;DHT22;7458;49.002;8.472;2022-07-29T04:48:48;21.60;92.10
14735;DHT22;7458;49.002;8.472;2022-07-29T04:51:15;21.70;92.10
14735;DHT22;7458;49.002;8.472;2022-07-29T04:53:41;21.70;92.10
14735;DHT22;7458;49.002;8.472;2022-07-29T04:56:07;21.70;92.10
14735;DHT22;7458;49.002;8.472;2022-07-29T04:58:36;21.80;92.20
14735;DHT22;7458;49.002;8.472;2022-07-29T05:01:02;21.80;92.20
14735;DHT22;7458;49.002;8.472;2022-07-29T05:03:28;21.80;92.10
14735;DHT22;7458;49.002;8.472;2022-07-29T05:05:55;21.80;92.10
14735;DHT22;7458;49.002;8.472;2022-07-29T05:08:20;21.80;92.00
14735;DHT22;7458;49.002;8.472;2022-07-29T05:10:46;21.80;92.00
14735;DHT22;7458;49.002;8.472;2022-07-29T05:13:12;21.80;92.10
14735;DHT22;7458;49.002;8.472;2022-07-29T05:15:38;21.90;92.10
14735;DHT22;7458;49.002;8.472;2022-07-29T05:18:04;21.80;92.10
14735;DHT22;7458;49.002;8.472;2022-07-29T05:20:30;21.70;92.30
14735;DHT22;7458;49.002;8.472;2022-07-29T05:22:58;21.70;92.40
14735;DHT22;7458;49.002;8.472;2022-07-29T05:25:26;21.80;92.40
14735;DHT22;7458;49.002;8.472;2022-07-29T05:27:53;21.70;92.50
14735;DHT22;7458;49.002;8.472;2022-07-29T05:30:20;21.80;92.50
14735;DHT22;7458;49.002;8.472;2022-07-29T05:32:47;21.90;92.40
14735;DHT22;7458;49.002;8.472;2022-07-29T05:35:14;22.00;92.30
14735;DHT22;7458;49.002;8.472;2022-07-29T05:37:40;22.00;92.30
14735;DHT22;7458;49.002;8.472;2022-07-29T05:40:07;22.10;92.30
14735;DHT22;7458;49.002;8.472;2022-07-29T05:42:34;22.30;92.00
14735;DHT22;7458;49.002;8.472;2022-07-29T05:45:00;22.30;91.30
14735;DHT22;7458;49.002;8.472;2022-07-29T05:47:27;22.30;91.30
14735;DHT22;7458;49.002;8.472;2022-07-29T05:49:53;22.50;91.20
14735;DHT22;7458;49.002;8.472;2022-07-29T05:52:19;22.60;90.80
14735;DHT22;7458;49.002;8.472;2022-07-29T05:54:46;22.70;90.40
14735;DHT22;7458;49.002;8.472;2022-07-29T05:57:20;22.70;90.20
14735;DHT22;7458;49.002;8.472;2022-07-29T05:59:47;22.80;89.80
14735;DHT22;7458;49.002;8.472;2022-07-29T06:02:13;23.00;89.80
14735;DHT22;7458;49.002;8.472;2022-07-29T06:04:39;23.00;88.80
14735;DHT22;7458;49.002;8.472;2022-07-29T06:07:05;23.20;88.20
14735;DHT22;7458;49.002;8.472;2022-07-29T06:09:32;23.40;87.10
14735;DHT22;7458;49.002;8.472;2022-07-29T06:11:58;23.60;86.20
14735;DHT22;7458;49.002;8.472;2022-07-29T06:14:24;23.80;85.30
14735;DHT22;7458;49.002;8.472;2022-07-29T06:16:51;24.00;83.90
14735;DHT22;7458;49.002;8.472;2022-07-29T06:19:18;24.00;83.10
14735;DHT22;7458;49.002;8.472;2022-07-29T06:21:44;24.00;82.00
14735;DHT22;7458;49.002;8.472;2022-07-29T06:24:12;24.00;81.40
14735;DHT22;7458;49.002;8.472;2022-07-29T06:26:39;25.10;79.90
14735;DHT22;7458;49.002;8.472;2022-07-29T06:29:06;26.80;72.50
14735;DHT22;7458;49.002;8.472;2022-07-29T06:31:32;26.70;70.10
14735;DHT22;7458;49.002;8.472;2022-07-29T06:33:58;26.30;69.40
14735;DHT22;7458;49.002;8.472;2022-07-29T06:36:24;25.90;70.60
14735;DHT22;7458;49.002;8.472;2022-07-29T06:38:49;25.90;71.20
14735;DHT22;7458;49.002;8.472;2022-07-29T06:41:15;25.60;70.30
14735;DHT22;7458;49.002;8.472;2022-07-29T06:43:43;25.80;70.60
14735;DHT22;7458;49.002;8.472;2022-07-29T06:46:14;27.00;68.90
14735;DHT22;7458;49.002;8.472;2022-07-29T06:48:43;28.00;63.50
14735;DHT22;7458;49.002;8.472;2022-07-29T06:51:10;28.60;61.50
14735;DHT22;7458;49.002;8.472;2022-07-29T06:53:37;28.80;59.70
14735;DHT22;7458;49.002;8.472;2022-07-29T06:56:05;28.80;59.90
14735;DHT22;7458;49.002;8.472;2022-07-29T06:58:33;29.10;59.10
14735;DHT22;7458;49.002;8.472;2022-07-29T07:01:04;30.30;57.60
14735;DHT22;7458;49.002;8.472;2022-07-29T07:03:34;31.80;53.80
14735;DHT22;7458;49.002;8.472;2022-07-29T07:06:00;33.30;49.30
14735;DHT22;7458;49.002;8.472;2022-07-29T07:08:26;33.00;47.80
14735;DHT22;7458;49.002;8.472;2022-07-29T07:10:52;32.70;47.70
14735;DHT22;7458;49.002;8.472;2022-07-29T07:13:19;32.80;47.30
14735;DHT22;7458;49.002;8.472;2022-07-29T07:15:45;32.70;48.00
14735;DHT22;7458;49.002;8.472;2022-07-29T07:18:13;32.20;48.50
14735;DHT22;7458;49.002;8.472;2022-07-29T07:20:41;32.10;48.90
14735;DHT22;7458;49.002;8.472;2022-07-29T07:23:08;31.70;50.00
14735;DHT22;7458;49.002;8.472;2022-07-29T07:25:34;31.40;50.00
14735;DHT22;7458;49.002;8.472;2022-07-29T07:28:00;31.60;50.30
14735;DHT22;7458;49.002;8.472;2022-07-29T07:30:26;31.30;49.50
14735;DHT22;7458;49.002;8.472;2022-07-29T07:32:55;31.00;51.00
14735;DHT22;7458;49.002;8.472;2022-07-29T07:35:21;30.40;50.80
14735;DHT22;7458;49.002;8.472;2022-07-29T07:37:47;30.00;52.10
14735;DHT22;7458;49.002;8.472;2022-07-29T07:40:13;29.70;52.80
14735;DHT22;7458;49.002;8.472;2022-07-29T07:42:40;29.50;52.90
14735;DHT22;7458;49.002;8.472;2022-07-29T07:45:07;29.60;53.80
14735;DHT22;7458;49.002;8.472;2022-07-29T07:47:38;29.90;53.40
14735;DHT22;7458;49.002;8.472;2022-07-29T07:50:05;30.20;52.90
14735;DHT22;7458;49.002;8.472;2022-07-29T07:52:33;30.20;52.10
14735;DHT22;7458;49.002;8.472;2022-07-29T07:54:59;30.00;52.50
14735;DHT22;7458;49.002;8.472;2022-07-29T07:57:27;29.50;52.90
14735;DHT22;7458;49.002;8.472;2022-07-29T07:59:52;29.50;53.10
14735;DHT22;7458;49.002;8.472;2022-07-29T08:02:18;29.80;52.70
14735;DHT22;7458;49.002;8.472;2022-07-29T08:04:44;29.60;53.40
14735;DHT22;7458;49.002;8.472;2022-07-29T08:07:09;29.30;52.40
14735;DHT22;7458;49.002;8.472;2022-07-29T08:09:36;29.90;52.70
14735;DHT22;7458;49.002;8.472;2022-07-29T08:12:02;29.90;52.00
14735;DHT22;7458;49.002;8.472;2022-07-29T08:14:30;29.40;52.00
14735;DHT22;7458;49.002;8.472;2022-07-29T08:16:56;29.10;52.70
14735;DHT22;7458;49.002;8.472;2022-07-29T08:19:22;28.70;53.40
14735;DHT22;7458;49.002;8.472;2022-07-29T08:21:48;28.20;53.70
14735;DHT22;7458;49.002;8.472;2022-07-29T08:24:14;28.40;54.10
14735;DHT22;7458;49.002;8.472;2022-07-29T08:26:58;28.50;54.10
14735;DHT22;7458;49.002;8.472;2022-07-29T08:29:24;28.40;53.50
14735;DHT22;7458;49.002;8.472;2022-07-29T08:31:50;28.60;53.10
14735;DHT22;7458;49.002;8.472;2022-07-29T08:34:16;29.10;52.60
14735;DHT22;7458;49.002;8.472;2022-07-29T08:36:41;29.50;50.90
14735;DHT22;7458;49.002;8.472;2022-07-29T08:39:07;30.20;50.50
14735;DHT22;7458;49.002;8.472;2022-07-29T08:41:36;30.30;48.80
14735;DHT22;7458;49.002;8.472;2022-07-29T08:44:07;30.50;48.70
14735;DHT22;7458;49.002;8.472;2022-07-29T08:46:38;31.10;48.20
14735;DHT22;7458;49.002;8.472;2022-07-29T08:49:07;31.40;47.70
14735;DHT22;7458;49.002;8.472;2022-07-29T08:51:33;31.40;47.50
14735;DHT22;7458;49.002;8.472;2022-07-29T08:54:02;31.50;46.20
14735;DHT22;7458;49.002;8.472;2022-07-29T08:56:28;31.70;45.60
14735;DHT22;7458;49.002;8.472;2022-07-29T08:58:57;31.80;45.20
14735;DHT22;7458;49.002;8.472;2022-07-29T09:01:25;31.90;44.40
14735;DHT22;7458;49.002;8.472;2022-07-29T09:03:56;31.50;44.30
14735;DHT22;7458;49.002;8.472;2022-07-29T09:06:31;31.30;45.20
14735;DHT22;7458;49.002;8.472;2022-07-29T09:09:00;31.10;45.00
14735;DHT22;7458;49.002;8.472;2022-07-29T09:11:26;31.30;44.50
14735;DHT22;7458;49.002;8.472;2022-07-29T09:13:53;31.30;44.10
14735;DHT22;7458;49.002;8.472;2022-07-29T09:16:19;31.60;43.70
14735;DHT22;7458;49.002;8.472;2022-07-29T09:18:46;31.90;43.90
14735;DHT22;7458;49.002;8.472;2022-07-29T09:21:14;32.10;43.50
14735;DHT22;7458;49.002;8.472;2022-07-29T09:24:09;32.00;43.60
14735;DHT22;7458;49.002;8.472;2022-07-29T09:26:42;31.80;44.00
14735;DHT22;7458;49.002;8.472;2022-07-29T09:29:17;32.30;43.60
14735;DHT22;7458;49.002;8.472;2022-07-29T09:31:47;32.40;43.00
14735;DHT22;7458;49.002;8.472;2022-07-29T09:34:35;32.70;42.40
14735;DHT22;7458;49.002;8.472;2022-07-29T09:37:01;32.40;41.50
14735;DHT22;7458;49.002;8.472;2022-07-29T09:39:30;32.20;42.10
14735;DHT22;7458;49.002;8.472;2022-07-29T09:42:03;31.70;42.60
14735;DHT22;7458;49.002;8.472;2022-07-29T09:47:14;31.30;44.60
14735;DHT22;7458;49.002;8.472;2022-07-29T09:49:54;31.70;44.10
14735;DHT22;7458;49.002;8.472;2022-07-29T09:52:21;31.90;42.90
14735;DHT22;7458;49.002;8.472;2022-07-29T09:54:47;31.90;43.30
14735;DHT22;7458;49.002;8.472;2022-07-29T09:57:27;32.00;43.10
14735;DHT22;7458;49.002;8.472;2022-07-29T10:00:04;31.70;42.50
14735;DHT22;7458;49.002;8.472;2022-07-29T10:02:42;31.60;43.40
14735;DHT22;7458;49.002;8.472;2022-07-29T10:05:23;31.80;43.60
14735;DHT22;7458;49.002;8.472;2022-07-29T10:07:54;31.90;43.10
14735;DHT22;7458;49.002;8.472;2022-07-29T10:10:27;31.70;43.50
14735;DHT22;7458;49.002;8.472;2022-07-29T10:15:28;31.10;43.60
14735;DHT22;7458;49.002;8.472;2022-07-29T10:18:02;30.70;43.80
14735;DHT22;7458;49.002;8.472;2022-07-29T10:20:28;30.40;44.50
14735;DHT22;7458;49.002;8.472;2022-07-29T10:22:54;30.20;45.50
14735;DHT22;7458;49.002;8.472;2022-07-29T10:25:21;30.10;46.00
14735;DHT22;7458;49.002;8.472;2022-07-29T10:27:49;30.00;45.50
14735;DHT22;7458;49.002;8.472;2022-07-29T10:30:17;29.90;46.10
14735;DHT22;7458;49.002;8.472;2022-07-29T10:32:59;29.90;46.10
14735;DHT22;7458;49.002;8.472;2022-07-29T10:44:23;30.20;46.30
14735;DHT22;7458;49.002;8.472;2022-07-29T10:46:51;30.80;45.40
14735;DHT22;7458;49.002;8.472;2022-07-29T10:49:22;31.10;43.80
14735;DHT22;7458;49.002;8.472;2022-07-29T10:52:08;31.60;44.00
14735;DHT22;7458;49.002;8.472;2022-07-29T10:59:44;32.40;40.20
14735;DHT22;7458;49.002;8.472;2022-07-29T11:07:31;32.90;40.50
14735;DHT22;7458;49.002;8.472;2022-07-29T11:15:22;33.00;39.00
14735;DHT22;7458;49.002;8.472;2022-07-29T11:20:47;33.00;39.50
14735;DHT22;7458;49.002;8.472;2022-07-29T11:23:30;33.30;38.80
14735;DHT22;7458;49.002;8.472;2022-07-29T11:31:52;33.80;37.40
14735;DHT22;7458;49.002;8.472;2022-07-29T11:34:28;33.80;36.70
14735;DHT22;7458;49.002;8.472;2022-07-29T11:47:35;33.90;36.00
14735;DHT22;7458;49.002;8.472;2022-07-29T11:50:05;33.80;37.00
14735;DHT22;7458;49.002;8.472;2022-07-29T11:52:36;33.80;36.70
14735;DHT22;7458;49.002;8.472;2022-07-29T11:55:15;33.70;36.80
14735;DHT22;7458;49.002;8.472;2022-07-29T11:57:59;33.80;37.10
14735;DHT22;7458;49.002;8.472;2022-07-29T12:03:03;34.10;37.30
14735;DHT22;7458;49.002;8.472;2022-07-29T12:05:42;33.70;36.40
14735;DHT22;7458;49.002;8.472;2022-07-29T12:08:16;33.30;38.00
14735;DHT22;7458;49.002;8.472;2022-07-29T12:10:48;33.30;38.80
14735;DHT22;7458;49.002;8.472;2022-07-29T12:13:18;33.50;38.80
14735;DHT22;7458;49.002;8.472;2022-07-29T12:15:56;33.50;37.50
14735;DHT22;7458;49.002;8.472;2022-07-29T12:18:23;33.10;38.50
14735;DHT22;7458;49.002;8.472;2022-07-29T12:21:00;33.00;38.80
14735;DHT22;7458;49.002;8.472;2022-07-29T12:23:31;32.70;38.70
14735;DHT22;7458;49.002;8.472;2022-07-29T12:25:58;32.50;39.30
14735;DHT22;7458;49.002;8.472;2022-07-29T12:28:24;32.40;39.20
14735;DHT22;7458;49.002;8.472;2022-07-29T12:30:51;32.30;38.70
14735;DHT22;7458;49.002;8.472;2022-07-29T12:35:53;32.30;39.30
14735;DHT22;7458;49.002;8.472;2022-07-29T12:38:21;32.40;39.60
14735;DHT22;7458;49.002;8.472;2022-07-29T12:40:48;32.60;39.40
14735;DHT22;7458;49.002;8.472;2022-07-29T12:45:54;32.80;38.10
14735;DHT22;7458;49.002;8.472;2022-07-29T12:48:38;32.70;37.60
14735;DHT22;7458;49.002;8.472;2022-07-29T12:51:07;32.70;37.30
14735;DHT22;7458;49.002;8.472;2022-07-29T12:53:35;32.70;36.70
14735;DHT22;7458;49.002;8.472;2022-07-29T12:56:02;32.60;36.80
14735;DHT22;7458;49.002;8.472;2022-07-29T12:58:41;32.70;37.50
14735;DHT22;7458;49.002;8.472;2022-07-29T13:06:42;32.50;37.10
14735;DHT22;7458;49.002;8.472;2022-07-29T13:11:44;32.60;37.40
14735;DHT22;7458;49.002;8.472;2022-07-29T13:20:04;32.70;37.00
14735;DHT22;7458;49.002;8.472;2022-07-29T13:22:34;32.80;36.80
14735;DHT22;7458;49.002;8.472;2022-07-29T13:25:05;32.60;37.10
14735;DHT22;7458;49.002;8.472;2022-07-29T13:27:38;32.70;37.40
14735;DHT22;7458;49.002;8.472;2022-07-29T13:30:09;32.60;36.80
14735;DHT22;7458;49.002;8.472;2022-07-29T13:32:36;32.40;37.70
14735;DHT22;7458;49.002;8.472;2022-07-29T13:35:05;32.50;37.10
14735;DHT22;7458;49.002;8.472;2022-07-29T13:37:34;32.50;36.70
14735;DHT22;7458;49.002;8.472;2022-07-29T13:40:04;32.20;35.90
14735;DHT22;7458;49.002;8.472;2022-07-29T13:42:34;32.20;36.20
14735;DHT22;7458;49.002;8.472;2022-07-29T13:45:00;32.20;36.00
14735;DHT22;7458;49.002;8.472;2022-07-29T13:47:27;32.10;36.20
14735;DHT22;7458;49.002;8.472;2022-07-29T13:49:53;31.80;35.30
14735;DHT22;7458;49.002;8.472;2022-07-29T13:52:20;31.80;35.90
14735;DHT22;7458;49.002;8.472;2022-07-29T13:54:46;31.80;36.10
14735;DHT22;7458;49.002;8.472;2022-07-29T13:57:17;31.70;36.10
14735;DHT22;7458;49.002;8.472;2022-07-29T13:59:43;31.70;36.40
14735;DHT22;7458;49.002;8.472;2022-07-29T14:02:10;31.70;36.30
14735;DHT22;7458;49.002;8.472;2022-07-29T14:04:37;31.80;36.00
14735;DHT22;7458;49.002;8.472;2022-07-29T14:07:04;31.80;36.30
14735;DHT22;7458;49.002;8.472;2022-07-29T14:09:30;31.70;35.90
14735;DHT22;7458;49.002;8.472;2022-07-29T14:11:56;31.80;36.40
14735;DHT22;7458;49.002;8.472;2022-07-29T14:14:22;31.80;36.20
14735;DHT22;7458;49.002;8.472;2022-07-29T14:16:48;31.70;36.10
14735;DHT22;7458;49.002;8.472;2022-07-29T14:19:14;31.70;36.30
14735;DHT22;7458;49.002;8.472;2022-07-29T14:21:40;31.70;36.60
14735;DHT22;7458;49.002;8.472;2022-07-29T14:24:06;31.80;36.50
14735;DHT22;7458;49.002;8.472;2022-07-29T14:26:32;31.80;36.50
14735;DHT22;7458;49.002;8.472;2022-07-29T14:29:04;31.80;36.10
14735;DHT22;7458;49.002;8.472;2022-07-29T14:31:35;31.70;36.10
14735;DHT22;7458;49.002;8.472;2022-07-29T14:34:00;31.60;36.70
14735;DHT22;7458;49.002;8.472;2022-07-29T14:36:26;31.70;36.70
14735;DHT22;7458;49.002;8.472;2022-07-29T14:38:52;31.50;36.50
14735;DHT22;7458;49.002;8.472;2022-07-29T14:41:18;31.50;36.90
14735;DHT22;7458;49.002;8.472;2022-07-29T14:43:44;31.50;36.70
14735;DHT22;7458;49.002;8.472;2022-07-29T14:46:10;31.50;36.50
14735;DHT22;7458;49.002;8.472;2022-07-29T14:48:35;31.50;36.80
14735;DHT22;7458;49.002;8.472;2022-07-29T14:51:01;31.50;36.20
14735;DHT22;7458;49.002;8.472;2022-07-29T14:53:27;31.50;35.90
14735;DHT22;7458;49.002;8.472;2022-07-29T14:55:53;31.50;36.00
14735;DHT22;7458;49.002;8.472;2022-07-29T14:58:18;31.40;35.70
14735;DHT22;7458;49.002;8.472;2022-07-29T15:00:46;31.20;35.60
14735;DHT22;7458;49.002;8.472;2022-07-29T15:03:12;31.30;36.30
14735;DHT22;7458;49.002;8.472;2022-07-29T15:05:38;31.50;36.20
14735;DHT22;7458;49.002;8.472;2022-07-29T15:08:04;31.50;35.60
14735;DHT22;7458;49.002;8.472;2022-07-29T15:10:30;31.50;35.40
14735;DHT22;7458;49.002;8.472;2022-07-29T15:12:56;31.50;35.60
14735;DHT22;7458;49.002;8.472;2022-07-29T15:15:22;31.50;35.20
14735;DHT22;7458;49.002;8.472;2022-07-29T15:17:48;31.50;34.80
14735;DHT22;7458;49.002;8.472;2022-07-29T15:20:13;31.40;35.00
14735;DHT22;7458;49.002;8.472;2022-07-29T15:22:40;31.40;35.20
14735;DHT22;7458;49.002;8.472;2022-07-29T15:25:07;31.30;35.20
14735;DHT22;7458;49.002;8.472;2022-07-29T15:27:33;31.40;35.40
14735;DHT22;7458;49.002;8.472;2022-07-29T15:29:59;31.40;35.30
14735;DHT22;7458;49.002;8.472;2022-07-29T15:32:25;31.40;35.10
14735;DHT22;7458;49.002;8.472;2022-07-29T15:34:51;31.50;35.40
14735;DHT22;7458;49.002;8.472;2022-07-29T15:37:17;31.50;34.90
14735;DHT22;7458;49.002;8.472;2022-07-29T15:39:42;31.40;34.40
14735;DHT22;7458;49.002;8.472;2022-07-29T15:42:08;31.40;34.60
14735;DHT22;7458;49.002;8.472;2022-07-29T15:44:34;31.40;33.60
14735;DHT22;7458;49.002;8.472;2022-07-29T15:47:00;31.40;33.80
14735;DHT22;7458;49.002;8.472;2022-07-29T15:49:39;31.30;33.70
14735;DHT22;7458;49.002;8.472;2022-07-29T15:52:07;31.30;34.00
14735;DHT22;7458;49.002;8.472;2022-07-29T15:54:39;31.20;34.50
14735;DHT22;7458;49.002;8.472;2022-07-29T15:57:06;31.20;34.80
14735;DHT22;7458;49.002;8.472;2022-07-29T15:59:33;31.20;34.80
14735;DHT22;7458;49.002;8.472;2022-07-29T16:02:00;31.10;34.00
14735;DHT22;7458;49.002;8.472;2022-07-29T16:04:26;31.00;33.90
14735;DHT22;7458;49.002;8.472;2022-07-29T16:06:53;31.10;33.50
14735;DHT22;7458;49.002;8.472;2022-07-29T16:09:19;31.10;33.90
14735;DHT22;7458;49.002;8.472;2022-07-29T16:11:45;31.00;34.00
14735;DHT22;7458;49.002;8.472;2022-07-29T16:14:13;31.00;33.80
14735;DHT22;7458;49.002;8.472;2022-07-29T16:16:39;30.80;33.60
14735;DHT22;7458;49.002;8.472;2022-07-29T16:19:06;30.70;33.70
14735;DHT22;7458;49.002;8.472;2022-07-29T16:21:34;30.70;33.90
14735;DHT22;7458;49.002;8.472;2022-07-29T16:24:00;30.60;33.80
14735;DHT22;7458;49.002;8.472;2022-07-29T16:26:27;30.70;33.40
14735;DHT22;7458;49.002;8.472;2022-07-29T16:28:53;30.60;33.50
14735;DHT22;7458;49.002;8.472;2022-07-29T16:31:19;30.50;33.80
14735;DHT22;7458;49.002;8.472;2022-07-29T16:33:48;30.60;34.10
14735;DHT22;7458;49.002;8.472;2022-07-29T16:36:14;30.50;34.30
14735;DHT22;7458;49.002;8.472;2022-07-29T16:38:41;30.40;34.20
14735;DHT22;7458;49.002;8.472;2022-07-29T16:41:07;30.40;34.60
14735;DHT22;7458;49.002;8.472;2022-07-29T16:43:33;30.50;34.70
14735;DHT22;7458;49.002;8.472;2022-07-29T16:45:59;30.50;35.00
14735;DHT22;7458;49.002;8.472;2022-07-29T16:48:28;30.40;35.10
14735;DHT22;7458;49.002;8.472;2022-07-29T16:50:54;30.40;35.40
14735;DHT22;7458;49.002;8.472;2022-07-29T16:53:20;30.40;35.80
14735;DHT22;7458;49.002;8.472;2022-07-29T16:55:46;30.40;36.00
14735;DHT22;7458;49.002;8.472;2022-07-29T16:58:12;30.40;36.30
14735;DHT22;7458;49.002;8.472;2022-07-29T17:00:38;30.50;36.50
14735;DHT22;7458;49.002;8.472;2022-07-29T17:03:04;29.60;36.20
14735;DHT22;7458;49.002;8.472;2022-07-29T17:05:30;30.60;36.30
14735;DHT22;7458;49.002;8.472;2022-07-29T17:07:56;30.60;36.20
14735;DHT22;7458;49.002;8.472;2022-07-29T17:10:23;30.60;36.20
14735;DHT22;7458;49.002;8.472;2022-07-29T17:12:50;30.70;36.30